x

Point Arguello, Ca (ptgc1) Weather Station

6:00pm - Sat 29th Aug 2015 All times are PDT. -7 hours from GMT.

  • Wind
    24mph, 26mph gusts
  • Air Temp 66°f
  • Sea Pressure 1013.5mb
  • Point Arguello, Ca
  • Point Arguello, Ca

More Historic Weather Station data

Upgrade to MSW Pro to gain access to the past 30 days of data for over 8000 Wavebouys and Weather Stations around the globe.

Join Pro

Comparision Forecast

View Surf forecast
   
Sat 08/29 6:00pm 24 26 mph 1013.5mb 66f
5:00pm 25 28 mph 1013.6mb 67f
4:00pm 23 24 mph 1014mb 67f
3:00pm 22 25 mph 1014.3mb 67f
2:00pm 20 21 mph 1014.5mb 66f
1:00pm 22 24 mph 1014.6mb 66f
12:00pm 21 23 mph 1014.9mb 64f
11:00am 24 25 mph 1014.8mb 63f
10:00am 24 28 mph 1014.2mb 64f
9:00am 25 29 mph 1014mb 62f
8:00am 28 30 mph 1013.7mb 61f
7:00am 25 28 mph 1013.1mb 61f
6:00am 24 26 mph 1013mb 60f
5:00am 26 29 mph 1012.7mb 61f
4:00am 29 31 mph 1012.3mb 62f
3:00am 25 28 mph 1012.7mb 60f
2:00am 28 29 mph 1012.6mb 60f
1:00am 28 29 mph 1012.3mb 60f
12:00am 28 30 mph 1012.5mb 61f
Fri 08/28 11:00pm 28 30 mph 1012.5mb 62f
10:00pm 28 29 mph 1012.7mb 63f
9:00pm 28 29 mph 1012.1mb 64f
8:00pm 26 28 mph 1012.1mb 62f
7:00pm 25 26 mph 1012.1mb 63f
6:00pm 18 20 mph 1012.1mb 65f
5:00pm 18 20 mph 1011.7mb 66f
4:00pm 20 21 mph 1011.9mb 66f
3:00pm 18 20 mph 1012.1mb 66f
2:00pm 16
mph
1012.8mb 66f
1:00pm 13 14 mph 1013.2mb 66f
12:00pm 8
mph
1013.7mb 65f
11:00am 1 2 mph 1013mb 67f
10:00am 3 5 mph 1013.2mb 66f
9:00am  -  2 mph 1012.7mb 70f
8:00am 8
mph
1012.7mb 64f
7:00am 7
mph
1012.6mb 63f
6:00am 7 8 mph 1012.1mb 63f
5:00am 7 8 mph 1011.7mb 62f
4:00am 11 13 mph 1011.6mb 63f
3:00am 22
mph
1011.4mb 64f
2:00am 25 26 mph 1011.8mb 66f
1:00am 24 26 mph 1012.8mb 67f
12:00am 25 30 mph 1012.8mb 69f
Thu 08/27 11:00pm 23 25 mph 1013.3mb 69f
10:00pm 22 23 mph 1013.4mb 70f
9:00pm 26 29 mph 1012.6mb 71f
8:00pm 24 28 mph 1012.4mb 70f
7:00pm 24 25 mph 1012.2mb 71f
6:00pm 24 29 mph 1012.5mb 69f
5:00pm 25 28 mph 1012.7mb 70f
4:00pm 22 24 mph 1013.5mb 67f
3:00pm 17 18 mph 1014.3mb 67f
2:00pm 13 14 mph 1015.1mb 65f
1:00pm 10 11 mph 1015.6mb 64f
12:00pm 8
mph
1016.2mb 63f
11:00am 9
mph
1016.2mb 63f
10:00am 10
mph
1016mb 63f
9:00am 9 10 mph 1015.9mb 61f
8:00am 9
mph
1015.6mb 63f
7:00am 7 8 mph 1015.3mb 63f
6:00am 9
mph
1014.7mb 63f
5:00am 11 13 mph 1014.4mb 63f
4:00am 14 16 mph 1014.4mb 64f
3:00am 23 25 mph 1013.6mb 62f
2:00am 24 26 mph 1013.6mb 62f
1:00am 25 28 mph 1014mb 64f
12:00am 29 30 mph 1014.1mb 64f
Wed 08/26 11:00pm 24 26 mph 1014.6mb 64f
10:00pm 25 29 mph 1014.8mb 65f
9:00pm 25 28 mph 1014.5mb 65f
8:00pm 24 28 mph 1014.1mb 65f
7:00pm 24 26 mph 1013.9mb 65f
6:00pm 20 21 mph 1014.3mb 64f
5:00pm 20
mph
1014.3mb 64f
4:00pm 18 20 mph 1014.7mb 63f
3:00pm 17 20 mph 1015.4mb 62f
2:00pm 17 18 mph 1015.6mb 61f
1:00pm 17 20 mph 1015.8mb 60f
12:00pm 18
mph
1016.2mb 59f
11:00am 18 20 mph 1015.6mb 59f
10:00am 18
mph
1015.7mb 58f
9:00am 17 20 mph 1015.3mb 58f
8:00am 22 23 mph 1014.5mb 57f
7:00am 23 24 mph 1014mb 58f
6:00am 24 25 mph 1013.6mb 58f
5:00am 29 30 mph 1013.4mb 58f
4:00am 28 29 mph 1013.3mb 59f
3:00am 29 30 mph 1013.4mb 59f